- বাংলা English

 ****Phone:+880 2 9135742, 9123838, 9141437 | Fax: +880 2 8118230, 9119230, 9103908 | E-mail: info@bmd.gov.bd , swc@bmd.gov.bd   | IVR: 1090 |

TAF

TAF VGHS 231700Z 2318/2424 12004KT 3200 HZ SCT015 SCT100
BECMG 2400/2402 00000KT 2500 BR/HZ SCT014 SCT100
BECMG 2404/2406 19010KT 3500 HZ SCT015 SCT100
BECMG 2418/2420 VRB03KT 3000 HZ FEW015 SCT100=

TAF VGEG 231100Z 2312/2418 34008KT 4000 HZ NSC
       BECMG 2318/2320 00000KT 3500 HZ FEW016
       TEMPO 2323/2402 00000KT 1500 BR SCT012
       BECMG 2403/2405 26005KT 3500 HZ NSC
       BECMG 2412/2414 25008KT 4000 HZ NSC=

TAF VGSY 231000Z 2312/2418 22005KT 4500 HZ SCT015 BKN100
BECMG 2318/2520 04004KT 3000 HZ/BR SCT015 BKN100
BECMG 2323/2401 00000KT 1500 BR SCT012 BKN100
BECMG 2401/2403 00000KT 2500 BR SCT012
BECMG 2403/2405 09005KT 3500 HZ SCT015
TEMPO 2312/2418 31025G35KT 1500 TSRA/RA BKN006 FEW025CB OVC080=